createdAt,value
2022-09-09T00:02:24.905Z,100447.67
2022-09-09T00:05:02.468Z,100448.17
2022-09-09T00:07:52.057Z,100445.33
2022-09-09T00:10:43.039Z,100442.31
2022-09-09T00:13:34.551Z,100439.63
2022-09-09T00:16:23.581Z,100441.70
2022-09-09T00:19:25.792Z,100438.08
2022-09-09T00:22:15.182Z,100432.07
2022-09-09T00:24:56.653Z,100429.66
2022-09-09T00:30:39.679Z,100425.55
2022-09-09T00:33:16.334Z,100426.35
2022-09-09T00:35:59.585Z,100432.41
2022-09-09T00:38:47.068Z,100429.09
2022-09-09T00:41:36.462Z,100431.05
2022-09-09T00:44:36.641Z,100424.31
2022-09-09T00:47:27.463Z,100422.97
2022-09-09T00:50:36.893Z,100422.11
2022-09-09T00:53:58.288Z,100421.12
2022-09-09T00:56:43.354Z,100418.15
2022-09-09T00:59:11.672Z,100417.77
2022-09-09T01:01:40.820Z,100416.13
2022-09-09T01:04:32.401Z,100422.01
2022-09-09T01:07:18.683Z,100421.21
2022-09-09T01:10:02.258Z,100423.73
2022-09-09T01:12:43.533Z,100421.29
2022-09-09T01:15:30.024Z,100419.75
2022-09-09T01:18:11.274Z,100424.06
2022-09-09T01:20:50.832Z,100426.48
2022-09-09T01:23:57.687Z,100430.13
2022-09-09T01:26:43.870Z,100430.98
2022-09-09T01:29:23.243Z,100429.65
2022-09-09T01:32:03.556Z,100431.56
2022-09-09T01:34:40.049Z,100429.61
2022-09-09T01:37:13.378Z,100425.02
2022-09-09T01:39:45.727Z,100427.30
2022-09-09T01:42:17.853Z,100429.69
2022-09-09T01:44:47.282Z,100427.30
2022-09-09T01:47:16.907Z,100427.04
2022-09-09T01:50:04.274Z,100424.34
2022-09-09T01:52:40.942Z,100422.16
2022-09-09T01:55:13.080Z,100418.08
2022-09-09T01:58:02.470Z,100417.48
2022-09-09T02:00:32.957Z,100416.67
2022-09-09T02:03:06.338Z,100414.23
2022-09-09T02:06:05.070Z,100417.84
2022-09-09T02:08:50.257Z,100415.50
2022-09-09T02:11:26.897Z,100418.92
2022-09-09T02:14:19.804Z,100422.65
2022-09-09T02:17:04.266Z,100425.42
2022-09-09T02:19:52.881Z,100424.45
2022-09-09T02:22:37.005Z,100418.61
2022-09-09T02:25:08.329Z,100414.84
2022-09-09T02:27:36.704Z,100410.58
2022-09-09T02:30:06.286Z,100405.09
2022-09-09T02:32:44.443Z,100393.77
2022-09-09T02:35:18.831Z,100386.02
2022-09-09T02:37:47.653Z,100384.23
2022-09-09T02:40:17.134Z,100385.73
2022-09-09T02:42:50.889Z,100387.02
2022-09-09T02:45:27.011Z,100386.67
2022-09-09T02:48:27.704Z,100395.37
2022-09-09T02:51:37.268Z,100393.06
2022-09-09T02:54:18.132Z,100398.88
2022-09-09T02:56:57.488Z,100400.46
2022-09-09T02:59:33.741Z,100405.74
2022-09-09T03:02:02.691Z,100405.25
2022-09-09T03:04:32.385Z,100400.83
2022-09-09T03:07:01.013Z,100402.69
2022-09-09T03:09:29.440Z,100401.05
2022-09-09T03:11:58.158Z,100399.77
2022-09-09T03:14:28.180Z,100404.17
2022-09-09T03:16:59.145Z,100406.49
2022-09-09T03:19:29.006Z,100403.13
2022-09-09T03:21:57.462Z,100408.49
2022-09-09T03:24:27.089Z,100409.79
2022-09-09T03:26:57.010Z,100408.17
2022-09-09T03:29:25.736Z,100409.13
2022-09-09T03:31:55.344Z,100406.08
2022-09-09T03:34:24.081Z,100404.56
2022-09-09T03:36:52.853Z,100407.78
2022-09-09T03:39:21.630Z,100407.66
2022-09-09T03:41:50.147Z,100407.61
2022-09-09T03:44:18.775Z,100402.88
2022-09-09T03:46:48.495Z,100397.87
2022-09-09T03:49:18.025Z,100398.02
2022-09-09T03:51:46.449Z,100397.15
2022-09-09T03:54:15.364Z,100391.10
2022-09-09T03:56:43.791Z,100383.77
2022-09-09T03:59:15.520Z,100382.60
2022-09-09T04:01:44.278Z,100387.54
2022-09-09T04:04:13.475Z,100386.45
2022-09-09T04:06:42.997Z,100393.34
2022-09-09T04:09:11.515Z,100393.52
2022-09-09T04:11:40.135Z,100393.69
2022-09-09T04:14:08.958Z,100394.30
2022-09-09T04:16:38.702Z,100398.91
2022-09-09T04:19:08.912Z,100398.65
2022-09-09T04:21:37.639Z,100396.40
2022-09-09T04:24:06.960Z,100400.79
2022-09-09T04:26:37.696Z,100400.95
2022-09-09T04:29:08.222Z,100408.84
2022-09-09T04:31:37.284Z,100407.27
2022-09-09T04:34:06.567Z,100407.77
2022-09-09T04:36:35.693Z,100403.88
2022-09-09T04:39:06.125Z,100406.26
2022-09-09T04:41:34.744Z,100408.65
2022-09-09T04:44:04.165Z,100407.56
2022-09-09T04:46:35.491Z,100407.80
2022-09-09T04:49:04.019Z,100408.27
2022-09-09T04:51:33.342Z,100401.69
2022-09-09T04:54:01.970Z,100401.13
2022-09-09T04:56:30.386Z,100399.17
2022-09-09T04:59:00.617Z,100400.30
2022-09-09T05:01:43.755Z,100401.08
2022-09-09T05:04:13.313Z,100403.38
2022-09-09T05:06:42.035Z,100405.67
2022-09-09T05:09:10.659Z,100408.73
2022-09-09T05:11:39.381Z,100407.57
2022-09-09T05:14:16.332Z,100402.89
2022-09-09T05:16:48.196Z,100399.52
2022-09-09T05:19:20.304Z,100396.26
2022-09-09T05:21:51.227Z,100393.98
2022-09-09T05:24:24.465Z,100392.86
2022-09-09T05:26:55.102Z,100390.13
2022-09-09T05:29:23.522Z,100391.63
2022-09-09T05:31:51.974Z,100392.19
2022-09-09T05:34:22.226Z,100393.88
2022-09-09T05:36:52.298Z,100398.98
2022-09-09T05:39:22.179Z,100398.91
2022-09-09T05:41:50.643Z,100398.77
2022-09-09T05:44:20.353Z,100394.17
2022-09-09T05:46:48.944Z,100389.95
2022-09-09T05:49:18.320Z,100391.82
2022-09-09T05:51:47.066Z,100392.35
2022-09-09T05:54:16.770Z,100396.67
2022-09-09T05:56:51.907Z,100397.50
2022-09-09T05:59:21.833Z,100395.88
2022-09-09T06:01:53.502Z,100393.30
2022-09-09T06:04:32.530Z,100393.59
2022-09-09T06:07:02.258Z,100389.88
2022-09-09T06:09:31.777Z,100388.63
2022-09-09T06:12:00.306Z,100385.39
2022-09-09T06:14:29.127Z,100382.05
2022-09-09T06:16:59.364Z,100383.89
2022-09-09T06:19:31.944Z,100388.08
2022-09-09T06:22:01.215Z,100389.48
2022-09-09T06:24:31.544Z,100390.18
2022-09-09T06:27:00.563Z,100388.11
2022-09-09T06:29:31.993Z,100389.59
2022-09-09T06:32:00.506Z,100387.62
2022-09-09T06:34:29.542Z,100383.41
2022-09-09T06:37:01.789Z,100379.86
2022-09-09T06:39:35.859Z,100375.80
2022-09-09T06:42:05.243Z,100372.87
2022-09-09T06:44:51.524Z,100369.98
2022-09-09T06:47:34.702Z,100372.98
2022-09-09T06:50:04.025Z,100371.08
2022-09-09T06:52:34.955Z,100375.61
2022-09-09T06:55:05.114Z,100373.41
2022-09-09T06:57:38.033Z,100367.52
2022-09-09T07:00:20.090Z,100363.95
2022-09-09T07:02:49.208Z,100361.88
2022-09-09T07:05:18.032Z,100359.27
2022-09-09T07:07:47.661Z,100357.42
2022-09-09T07:10:17.489Z,100362.84
2022-09-09T07:12:46.109Z,100368.30
2022-09-09T07:15:15.334Z,100372.20
2022-09-09T07:17:46.319Z,100374.30
2022-09-09T07:20:15.892Z,100376.80
2022-09-09T07:22:44.713Z,100380.55
2022-09-09T07:25:13.330Z,100382.94
2022-09-09T07:27:41.855Z,100384.38
2022-09-09T07:30:14.936Z,100379.92
2022-09-09T07:32:48.535Z,100378.63
2022-09-09T07:35:17.151Z,100374.80
2022-09-09T07:37:50.696Z,100366.15
2022-09-09T07:40:21.857Z,100365.71
2022-09-09T07:42:50.550Z,100363.98
2022-09-09T07:45:19.271Z,100353.05
2022-09-09T07:47:49.298Z,100354.68
2022-09-09T07:50:18.659Z,100359.69
2022-09-09T07:52:47.450Z,100370.52
2022-09-09T07:55:16.667Z,100368.33
2022-09-09T07:57:45.588Z,100365.50
2022-09-09T08:00:16.198Z,100363.48
2022-09-09T08:02:47.504Z,100360.35
2022-09-09T08:05:16.378Z,100358.45
2022-09-09T08:07:47.006Z,100362.10
2022-09-09T08:10:17.232Z,100360.77
2022-09-09T08:13:07.874Z,100364.58
2022-09-09T08:15:41.917Z,100366.11
2022-09-09T08:18:10.797Z,100364.80
2022-09-09T08:20:40.216Z,100364.77
2022-09-09T08:23:09.044Z,100362.02
2022-09-09T08:25:37.666Z,100359.71
2022-09-09T08:28:06.186Z,100359.02
2022-09-09T08:30:34.905Z,100361.24
2022-09-09T08:33:03.527Z,100359.61
2022-09-09T08:35:33.715Z,100358.88
2022-09-09T08:38:04.708Z,100356.41
2022-09-09T08:40:43.760Z,100357.31
2022-09-09T08:43:12.267Z,100354.59
2022-09-09T08:46:19.163Z,100351.64
2022-09-09T08:49:17.955Z,100351.29
2022-09-09T08:51:46.975Z,100350.67
2022-09-09T08:54:25.647Z,100355.70
2022-09-09T08:57:16.137Z,100348.57
2022-09-09T08:59:44.757Z,100349.41
2022-09-09T09:02:43.849Z,100345.73
2022-09-09T09:05:22.042Z,100344.59
2022-09-09T09:08:33.611Z,100345.29
2022-09-09T09:11:03.236Z,100344.90
2022-09-09T09:13:50.127Z,100345.25
2022-09-09T09:16:42.394Z,100347.05
2022-09-09T09:19:16.885Z,100343.71
2022-09-09T09:22:04.399Z,100351.14
2022-09-09T09:24:56.274Z,100347.08
2022-09-09T09:27:45.464Z,100347.39
2022-09-09T09:30:28.693Z,100342.63
2022-09-09T09:33:42.210Z,100339.66
2022-09-09T09:36:11.535Z,100342.59
2022-09-09T09:41:47.015Z,100343.91
2022-09-09T09:44:27.178Z,100341.10
2022-09-09T09:47:14.248Z,100344.83
2022-09-09T09:50:00.738Z,100347.63
2022-09-09T09:52:33.229Z,100346.27
2022-09-09T09:55:08.634Z,100348.34
2022-09-09T09:57:37.876Z,100350.54
2022-09-09T10:00:20.235Z,100355.98
2022-09-09T10:02:55.474Z,100356.45
2022-09-09T10:05:36.069Z,100358.30
2022-09-09T10:08:17.775Z,100356.30
2022-09-09T10:11:08.099Z,100355.91
2022-09-09T10:14:18.529Z,100361.16
2022-09-09T10:17:04.853Z,100363.56
2022-09-09T10:19:36.584Z,100361.98
2022-09-09T10:22:35.319Z,100357.64
2022-09-09T10:25:36.820Z,100361.72
2022-09-09T10:28:30.014Z,100363.98
2022-09-09T10:31:11.686Z,100368.01
2022-09-09T10:33:59.523Z,100368.69
2022-09-09T10:36:29.500Z,100371.75
2022-09-09T10:39:33.830Z,100364.77
2022-09-09T10:42:11.149Z,100379.65
2022-09-09T10:45:08.606Z,100379.85
2022-09-09T10:47:58.665Z,100377.50
2022-09-09T10:50:59.977Z,100378.29
2022-09-09T10:54:13.487Z,100373.83
2022-09-09T10:56:47.271Z,100373.79
2022-09-09T10:59:23.735Z,100376.39
2022-09-09T11:02:12.768Z,100374.38
2022-09-09T11:04:54.642Z,100373.39
2022-09-09T11:07:49.554Z,100377.02
2022-09-09T11:10:43.305Z,100371.16
2022-09-09T11:13:33.758Z,100365.17
2022-09-09T11:16:28.113Z,100363.27
2022-09-09T11:19:27.106Z,100358.41
2022-09-09T11:21:59.078Z,100359.92
2022-09-09T11:24:43.041Z,100356.33
2022-09-09T11:27:20.294Z,100353.23
2022-09-09T11:30:53.552Z,100348.61
2022-09-09T11:33:42.203Z,100346.66
2022-09-09T11:36:31.699Z,100346.12
2022-09-09T11:39:32.499Z,100342.63
2022-09-09T11:42:13.300Z,100340.46
2022-09-09T11:44:43.374Z,100329.16
2022-09-09T11:47:31.387Z,100324.34
2022-09-09T11:50:17.212Z,100322.98
2022-09-09T11:52:50.713Z,100322.29
2022-09-09T11:55:34.535Z,100325.67
2022-09-09T11:58:12.267Z,100322.14
2022-09-09T12:00:48.424Z,100316.48
2022-09-09T12:04:02.702Z,100313.24
2022-09-09T12:06:34.468Z,100309.69
2022-09-09T12:09:24.366Z,100313.66
2022-09-09T12:11:53.258Z,100309.41
2022-09-09T12:14:39.033Z,100304.59
2022-09-09T12:17:34.468Z,100306.02
2022-09-09T12:20:34.789Z,100305.80
2022-09-09T12:23:13.647Z,100307.20
2022-09-09T12:26:19.000Z,100310.52
2022-09-09T12:29:50.336Z,100307.81
2022-09-09T12:32:26.483Z,100310.39
2022-09-09T12:35:03.399Z,100314.45
2022-09-09T12:37:42.798Z,100316.88
2022-09-09T12:40:27.326Z,100316.04
2022-09-09T12:43:00.311Z,100309.77
2022-09-09T12:45:34.235Z,100303.34
2022-09-09T12:48:09.600Z,100303.79
2022-09-09T12:50:59.298Z,100305.57
2022-09-09T12:53:39.971Z,100310.27
2022-09-09T12:56:19.519Z,100308.95
2022-09-09T12:58:52.607Z,100309.59
2022-09-09T13:01:30.990Z,100305.09
2022-09-09T13:04:00.241Z,100309.74
2022-09-09T13:06:32.512Z,100311.55
2022-09-09T13:09:04.039Z,100310.02
2022-09-09T13:11:39.958Z,100313.29
2022-09-09T13:14:19.474Z,100315.55
2022-09-09T13:17:04.314Z,100316.34
2022-09-09T13:19:38.993Z,100321.31
2022-09-09T13:22:41.786Z,100325.23
2022-09-09T13:25:11.304Z,100327.08
2022-09-09T13:27:43.793Z,100326.81
2022-09-09T13:30:39.313Z,100326.99
2022-09-09T13:33:10.691Z,100332.41
2022-09-09T13:35:57.710Z,100339.38
2022-09-09T13:38:29.116Z,100344.95
2022-09-09T13:41:11.981Z,100349.07
2022-09-09T13:43:46.654Z,100351.48
2022-09-09T13:46:42.538Z,100356.96
2022-09-09T13:49:11.369Z,100357.70
2022-09-09T13:51:47.937Z,100358.94
2022-09-09T13:54:19.348Z,100360.21
2022-09-09T13:56:50.792Z,100358.63
2022-09-09T13:59:21.248Z,100354.05
2022-09-09T14:01:53.643Z,100349.84
2022-09-09T14:04:22.368Z,100345.30
2022-09-09T14:06:51.887Z,100345.88
2022-09-09T14:09:20.415Z,100349.59
2022-09-09T14:11:48.935Z,100348.48
2022-09-09T14:14:17.457Z,100351.73
2022-09-09T14:16:45.877Z,100350.30
2022-09-09T14:19:14.500Z,100350.61
2022-09-09T14:21:43.021Z,100346.38
2022-09-09T14:24:11.444Z,100343.83
2022-09-09T14:26:40.061Z,100340.08
2022-09-09T14:29:08.789Z,100335.70
2022-09-09T14:31:37.510Z,100337.64
2022-09-09T14:34:07.336Z,100335.48
2022-09-09T14:36:35.853Z,100336.41
2022-09-09T14:39:05.779Z,100336.29
2022-09-09T14:41:34.311Z,100336.92
2022-09-09T14:44:03.304Z,100338.27
2022-09-09T14:46:32.449Z,100337.98
2022-09-09T14:49:01.171Z,100331.13
2022-09-09T14:51:29.801Z,100330.80
2022-09-09T14:54:00.756Z,100330.02
2022-09-09T14:56:33.161Z,100331.05
2022-09-09T14:59:02.741Z,100336.29
2022-09-09T15:01:33.283Z,100336.97
2022-09-09T15:04:05.380Z,100336.86
2022-09-09T15:06:40.497Z,100335.02
2022-09-09T15:09:09.520Z,100335.67
2022-09-09T15:11:39.458Z,100341.71
2022-09-09T15:14:10.348Z,100337.96
2022-09-09T15:16:40.330Z,100337.23
2022-09-09T15:19:10.381Z,100334.58
2022-09-09T15:21:39.656Z,100339.05
2022-09-09T15:24:09.492Z,100344.92
2022-09-09T15:26:39.696Z,100345.70
2022-09-09T15:29:09.333Z,100344.97
2022-09-09T15:31:38.158Z,100345.55
2022-09-09T15:34:08.991Z,100349.00
2022-09-09T15:36:43.893Z,100351.00
2022-09-09T15:39:18.973Z,100353.13
2022-09-09T15:41:49.297Z,100355.76
2022-09-09T15:44:19.817Z,100366.35
2022-09-09T15:46:54.769Z,100369.10
2022-09-09T15:49:26.606Z,100371.63
2022-09-09T15:52:03.563Z,100372.55
2022-09-09T15:54:40.308Z,100376.67
2022-09-09T15:57:13.656Z,100376.29
2022-09-09T15:59:42.172Z,100377.01
2022-09-09T16:02:11.518Z,100376.42
2022-09-09T16:04:40.117Z,100382.06
2022-09-09T16:07:08.538Z,100378.52
2022-09-09T16:09:37.973Z,100378.61
2022-09-09T16:12:13.107Z,100379.16
2022-09-09T16:14:41.933Z,100376.04
2022-09-09T16:17:11.274Z,100371.88
2022-09-09T16:19:39.777Z,100369.09
2022-09-09T16:22:08.802Z,100368.83
2022-09-09T16:24:37.123Z,100368.25
2022-09-09T16:27:06.147Z,100372.30
2022-09-09T16:29:34.465Z,100373.94
2022-09-09T16:32:04.376Z,100374.75
2022-09-09T16:34:34.871Z,100374.80
2022-09-09T16:37:03.348Z,100373.80
2022-09-09T16:39:32.305Z,100371.52
2022-09-09T16:42:01.179Z,100371.43
2022-09-09T16:44:30.213Z,100367.85
2022-09-09T16:47:00.932Z,100370.09
2022-09-09T16:49:30.377Z,100373.77
2022-09-09T16:52:01.300Z,100377.66
2022-09-09T16:54:30.337Z,100380.94
2022-09-09T16:57:00.648Z,100380.02
2022-09-09T16:59:29.472Z,100384.91
2022-09-09T17:01:58.079Z,100387.30
2022-09-09T17:04:29.146Z,100390.58
2022-09-09T17:06:58.650Z,100398.55
2022-09-09T17:09:32.471Z,100397.80
2022-09-09T17:12:01.115Z,100404.20
2022-09-09T17:14:32.297Z,100409.23
2022-09-09T17:17:14.075Z,100410.21
2022-09-09T17:19:51.677Z,100410.29
2022-09-09T17:22:21.214Z,100413.86
2022-09-09T17:24:49.812Z,100418.98
2022-09-09T17:27:18.336Z,100416.73
2022-09-09T17:29:46.881Z,100416.54
2022-09-09T17:32:15.586Z,100416.16
2022-09-09T17:34:44.506Z,100413.81
2022-09-09T17:37:14.432Z,100415.15
2022-09-09T17:39:42.910Z,100425.09
2022-09-09T17:42:11.478Z,100428.30
2022-09-09T17:44:41.098Z,100424.76
2022-09-09T17:47:09.628Z,100425.46
2022-09-09T17:49:38.346Z,100425.27
2022-09-09T17:52:07.171Z,100428.00
2022-09-09T17:54:36.093Z,100432.88
2022-09-09T17:57:05.118Z,100435.13
2022-09-09T17:59:33.432Z,100435.11
2022-09-09T18:02:02.171Z,100436.25
2022-09-09T18:04:30.782Z,100434.59
2022-09-09T18:06:59.504Z,100432.59
2022-09-09T18:09:29.316Z,100434.39
2022-09-09T18:12:00.247Z,100438.19
2022-09-09T18:14:32.803Z,100445.17
2022-09-09T18:17:04.167Z,100442.41
2022-09-09T18:19:33.485Z,100449.11
2022-09-09T18:22:05.314Z,100447.65
2022-09-09T18:24:33.711Z,100446.52
2022-09-09T18:27:02.425Z,100442.44
2022-09-09T18:29:31.459Z,100440.88
2022-09-09T18:31:59.975Z,100435.42
2022-09-09T18:34:30.324Z,100433.63
2022-09-09T18:36:58.920Z,100431.52
2022-09-09T18:39:29.962Z,100431.52
2022-09-09T18:42:01.484Z,100428.25
2022-09-09T18:44:33.056Z,100436.67
2022-09-09T18:47:03.723Z,100443.06
2022-09-09T18:49:33.518Z,100447.83
2022-09-09T18:52:04.542Z,100448.92
2022-09-09T18:54:35.542Z,100442.17
2022-09-09T18:57:04.484Z,100440.94
2022-09-09T18:59:33.083Z,100440.58
2022-09-09T19:02:01.700Z,100437.39
2022-09-09T19:04:33.304Z,100438.98
2022-09-09T19:07:01.752Z,100438.83
2022-09-09T19:09:34.044Z,100438.03
2022-09-09T19:12:03.700Z,100439.70
2022-09-09T19:14:32.643Z,100437.14
2022-09-09T19:17:01.372Z,100436.23
2022-09-09T19:19:32.994Z,100432.90
2022-09-09T19:22:02.726Z,100430.58
2022-09-09T19:24:33.252Z,100425.62
2022-09-09T19:27:06.923Z,100420.39
2022-09-09T19:29:39.532Z,100425.15
2022-09-09T19:34:57.445Z,100421.13
2022-09-09T19:37:25.970Z,100421.48
2022-09-09T19:39:54.445Z,100418.37
2022-09-09T19:42:23.011Z,100420.56
2022-09-09T19:44:51.729Z,100414.23
2022-09-09T19:47:20.254Z,100411.75
2022-09-09T19:49:48.872Z,100409.95
2022-09-09T19:52:18.982Z,100410.65
2022-09-09T19:54:47.432Z,100409.27
2022-09-09T19:57:16.350Z,100407.84
2022-09-09T19:59:45.070Z,100406.23
2022-09-09T20:02:15.902Z,100410.17
2022-09-09T20:04:44.828Z,100405.38
2022-09-09T20:07:16.154Z,100406.07
2022-09-09T20:09:44.571Z,100400.84
2022-09-09T20:12:12.992Z,100402.08
2022-09-09T20:14:41.569Z,100404.21
2022-09-09T20:17:10.567Z,100401.52
2022-09-09T20:19:40.110Z,100398.98
2022-09-09T20:22:08.986Z,100401.02
2022-09-09T20:24:37.618Z,100405.26
2022-09-09T20:27:07.228Z,100409.73
2022-09-09T20:29:37.363Z,100415.61
2022-09-09T20:32:06.386Z,100417.46
2022-09-09T20:34:35.008Z,100414.09
2022-09-09T20:37:05.034Z,100414.73
2022-09-09T20:39:35.930Z,100413.37
2022-09-09T20:42:05.427Z,100412.69
2022-09-09T20:44:33.919Z,100418.56
2022-09-09T20:47:06.674Z,100417.03
2022-09-09T20:49:38.087Z,100416.65
2022-09-09T20:52:07.211Z,100420.52
2022-09-09T20:54:37.739Z,100425.80
2022-09-09T20:57:07.364Z,100425.73
2022-09-09T20:59:36.088Z,100427.20
2022-09-09T21:02:05.328Z,100429.83
2022-09-09T21:04:34.132Z,100428.08
2022-09-09T21:07:03.557Z,100421.67
2022-09-09T21:09:32.732Z,100419.46
2022-09-09T21:12:01.198Z,100418.61
2022-09-09T21:14:29.629Z,100418.97
2022-09-09T21:16:58.348Z,100419.80
2022-09-09T21:19:26.763Z,100416.19
2022-09-09T21:21:55.314Z,100420.00
2022-09-09T21:24:23.808Z,100419.69
2022-09-09T21:26:54.741Z,100422.57
2022-09-09T21:29:24.543Z,100421.06
2022-09-09T21:31:53.693Z,100418.55
2022-09-09T21:34:22.611Z,100416.71
2022-09-09T21:36:51.036Z,100414.52
2022-09-09T21:39:19.758Z,100408.80
2022-09-09T21:41:48.432Z,100407.33
2022-09-09T21:44:17.104Z,100407.48
2022-09-09T21:46:45.739Z,100402.54
2022-09-09T21:49:14.142Z,100405.79
2022-09-09T21:51:42.769Z,100404.92
2022-09-09T21:54:11.287Z,100404.84
2022-09-09T21:56:39.812Z,100404.30
2022-09-09T21:59:08.735Z,100403.95
2022-09-09T22:01:37.239Z,100401.09
2022-09-09T22:04:05.922Z,100395.11
2022-09-09T22:06:34.498Z,100392.72
2022-09-09T22:09:04.027Z,100383.94
2022-09-09T22:11:32.949Z,100386.54
2022-09-09T22:14:02.180Z,100385.79
2022-09-09T22:16:31.899Z,100383.48
2022-09-09T22:19:01.990Z,100382.45
2022-09-09T22:21:33.146Z,100378.27
2022-09-09T22:24:05.178Z,100376.15
2022-09-09T22:26:36.263Z,100374.75
2022-09-09T22:29:06.836Z,100375.81
2022-09-09T22:31:36.578Z,100374.34
2022-09-09T22:34:07.642Z,100374.83
2022-09-09T22:36:36.947Z,100372.70
2022-09-09T22:39:05.859Z,100372.36
2022-09-09T22:41:34.274Z,100370.45
2022-09-09T22:44:03.398Z,100369.08
2022-09-09T22:46:31.871Z,100365.77
2022-09-09T22:49:03.389Z,100362.81
2022-09-09T22:51:34.445Z,100361.09
2022-09-09T22:54:02.908Z,100360.67
2022-09-09T22:56:31.536Z,100358.76
2022-09-09T22:59:00.352Z,100360.67
2022-09-09T23:01:29.626Z,100358.73
2022-09-09T23:04:02.901Z,100358.38
2022-09-09T23:06:31.941Z,100358.28
2022-09-09T23:09:03.324Z,100360.27
2022-09-09T23:11:37.061Z,100367.04
2022-09-09T23:14:11.724Z,100366.50
2022-09-09T23:16:46.797Z,100365.19
2022-09-09T23:19:17.397Z,100371.25
2022-09-09T23:21:47.206Z,100372.42
2022-09-09T23:24:17.788Z,100372.58
2022-09-09T23:26:47.512Z,100374.11
2022-09-09T23:29:16.226Z,100373.10
2022-09-09T23:31:46.158Z,100369.63
2022-09-09T23:34:15.081Z,100373.34
2022-09-09T23:36:43.701Z,100374.96
2022-09-09T23:39:13.423Z,100376.25
2022-09-09T23:41:42.250Z,100372.90
2022-09-09T23:44:12.980Z,100372.50
2022-09-09T23:46:42.059Z,100365.77
2022-09-09T23:49:11.030Z,100364.89
2022-09-09T23:51:39.650Z,100362.63
2022-09-09T23:54:10.060Z,100359.13
2022-09-09T23:56:42.516Z,100356.13
2022-09-09T23:59:11.787Z,100354.36
